sensor_id;sensor_type;location;lat;lon;timestamp;temperature;humidity
10245;DHT22;5167;52.164;10.530;2022-11-12T00:00:52;10.30;15.50
10245;DHT22;5167;52.164;10.530;2022-11-12T00:03:17;10.20;15.70
10245;DHT22;5167;52.164;10.530;2022-11-12T00:05:44;10.20;15.70
10245;DHT22;5167;52.164;10.530;2022-11-12T00:08:10;10.20;16.00
10245;DHT22;5167;52.164;10.530;2022-11-12T00:10:35;10.10;16.00
10245;DHT22;5167;52.164;10.530;2022-11-12T00:13:01;10.20;16.60
10245;DHT22;5167;52.164;10.530;2022-11-12T00:15:26;10.10;16.30
10245;DHT22;5167;52.164;10.530;2022-11-12T00:17:52;10.10;16.70
10245;DHT22;5167;52.164;10.530;2022-11-12T00:20:18;10.00;16.80
10245;DHT22;5167;52.164;10.530;2022-11-12T00:22:43;10.10;16.80
10245;DHT22;5167;52.164;10.530;2022-11-12T00:25:09;10.00;17.20
10245;DHT22;5167;52.164;10.530;2022-11-12T00:27:35;10.00;17.20
10245;DHT22;5167;52.164;10.530;2022-11-12T00:30:00;10.00;17.30
10245;DHT22;5167;52.164;10.530;2022-11-12T00:32:26;9.90;17.50
10245;DHT22;5167;52.164;10.530;2022-11-12T00:34:52;9.90;17.70
10245;DHT22;5167;52.164;10.530;2022-11-12T00:37:17;9.90;17.60
10245;DHT22;5167;52.164;10.530;2022-11-12T00:39:43;9.90;17.80
10245;DHT22;5167;52.164;10.530;2022-11-12T00:42:09;9.80;17.30
10245;DHT22;5167;52.164;10.530;2022-11-12T00:44:35;9.70;17.70
10245;DHT22;5167;52.164;10.530;2022-11-12T00:47:00;9.70;18.00
10245;DHT22;5167;52.164;10.530;2022-11-12T00:49:26;9.70;18.00
10245;DHT22;5167;52.164;10.530;2022-11-12T00:51:52;9.70;17.90
10245;DHT22;5167;52.164;10.530;2022-11-12T00:54:17;9.70;18.00
10245;DHT22;5167;52.164;10.530;2022-11-12T00:56:45;9.70;18.60
10245;DHT22;5167;52.164;10.530;2022-11-12T00:59:11;9.70;18.60
10245;DHT22;5167;52.164;10.530;2022-11-12T01:01:37;9.60;18.00
10245;DHT22;5167;52.164;10.530;2022-11-12T01:04:04;9.70;17.90
10245;DHT22;5167;52.164;10.530;2022-11-12T01:06:30;9.60;17.50
10245;DHT22;5167;52.164;10.530;2022-11-12T01:08:55;9.60;16.80
10245;DHT22;5167;52.164;10.530;2022-11-12T01:11:26;9.50;16.50
10245;DHT22;5167;52.164;10.530;2022-11-12T01:13:55;9.40;16.10
10245;DHT22;5167;52.164;10.530;2022-11-12T01:16:23;9.40;15.50
10245;DHT22;5167;52.164;10.530;2022-11-12T01:18:57;9.40;14.80
10245;DHT22;5167;52.164;10.530;2022-11-12T01:21:25;9.30;14.70
10245;DHT22;5167;52.164;10.530;2022-11-12T01:23:51;9.30;14.30
10245;DHT22;5167;52.164;10.530;2022-11-12T01:26:18;9.30;14.50
10245;DHT22;5167;52.164;10.530;2022-11-12T01:28:44;9.20;14.20
10245;DHT22;5167;52.164;10.530;2022-11-12T01:33:35;9.10;14.20
10245;DHT22;5167;52.164;10.530;2022-11-12T01:36:01;9.10;14.70
10245;DHT22;5167;52.164;10.530;2022-11-12T01:38:26;9.10;14.30
10245;DHT22;5167;52.164;10.530;2022-11-12T01:40:52;9.10;14.10
10245;DHT22;5167;52.164;10.530;2022-11-12T01:43:17;9.10;14.20
10245;DHT22;5167;52.164;10.530;2022-11-12T01:45:45;9.10;13.80
10245;DHT22;5167;52.164;10.530;2022-11-12T01:48:34;9.10;13.60
10245;DHT22;5167;52.164;10.530;2022-11-12T01:51:02;9.10;13.50
10245;DHT22;5167;52.164;10.530;2022-11-12T01:53:33;9.00;13.20
10245;DHT22;5167;52.164;10.530;2022-11-12T01:56:01;9.00;13.40
10245;DHT22;5167;52.164;10.530;2022-11-12T01:58:28;9.00;12.90
10245;DHT22;5167;52.164;10.530;2022-11-12T02:00:56;9.00;12.70
10245;DHT22;5167;52.164;10.530;2022-11-12T02:03:23;8.90;12.60
10245;DHT22;5167;52.164;10.530;2022-11-12T02:05:54;8.90;12.60
10245;DHT22;5167;52.164;10.530;2022-11-12T02:08:21;8.80;12.90
10245;DHT22;5167;52.164;10.530;2022-11-12T02:10:47;8.80;12.80
10245;DHT22;5167;52.164;10.530;2022-11-12T02:13:12;8.80;12.90
10245;DHT22;5167;52.164;10.530;2022-11-12T02:15:57;8.70;12.50
10245;DHT22;5167;52.164;10.530;2022-11-12T02:18:22;8.70;12.70
10245;DHT22;5167;52.164;10.530;2022-11-12T02:21:01;8.70;12.70
10245;DHT22;5167;52.164;10.530;2022-11-12T02:23:27;8.70;13.00
10245;DHT22;5167;52.164;10.530;2022-11-12T02:25:53;8.70;12.60
10245;DHT22;5167;52.164;10.530;2022-11-12T02:28:18;8.60;13.20
10245;DHT22;5167;52.164;10.530;2022-11-12T02:30:47;8.60;13.30
10245;DHT22;5167;52.164;10.530;2022-11-12T02:33:13;8.60;12.90
10245;DHT22;5167;52.164;10.530;2022-11-12T02:35:38;8.50;13.10
10245;DHT22;5167;52.164;10.530;2022-11-12T02:38:04;8.50;13.50
10245;DHT22;5167;52.164;10.530;2022-11-12T02:40:30;8.40;13.00
10245;DHT22;5167;52.164;10.530;2022-11-12T02:42:56;8.40;13.70
10245;DHT22;5167;52.164;10.530;2022-11-12T02:45:21;8.40;13.70
10245;DHT22;5167;52.164;10.530;2022-11-12T02:47:47;8.30;14.00
10245;DHT22;5167;52.164;10.530;2022-11-12T02:50:13;8.30;14.80
10245;DHT22;5167;52.164;10.530;2022-11-12T02:52:39;8.30;14.50
10245;DHT22;5167;52.164;10.530;2022-11-12T02:55:06;8.30;15.00
10245;DHT22;5167;52.164;10.530;2022-11-12T02:57:32;8.30;14.60
10245;DHT22;5167;52.164;10.530;2022-11-12T02:59:58;8.30;14.70
10245;DHT22;5167;52.164;10.530;2022-11-12T03:02:23;8.40;14.20
10245;DHT22;5167;52.164;10.530;2022-11-12T03:04:49;8.30;14.20
10245;DHT22;5167;52.164;10.530;2022-11-12T03:07:14;8.30;14.10
10245;DHT22;5167;52.164;10.530;2022-11-12T03:09:40;8.30;14.40
10245;DHT22;5167;52.164;10.530;2022-11-12T03:12:06;8.30;14.60
10245;DHT22;5167;52.164;10.530;2022-11-12T03:14:31;8.30;14.70
10245;DHT22;5167;52.164;10.530;2022-11-12T03:16:57;8.20;14.30
10245;DHT22;5167;52.164;10.530;2022-11-12T03:19:22;8.20;14.30
10245;DHT22;5167;52.164;10.530;2022-11-12T03:21:48;8.20;13.70
10245;DHT22;5167;52.164;10.530;2022-11-12T03:24:13;8.20;13.80
10245;DHT22;5167;52.164;10.530;2022-11-12T03:26:39;8.20;12.80
10245;DHT22;5167;52.164;10.530;2022-11-12T03:29:04;8.20;13.70
10245;DHT22;5167;52.164;10.530;2022-11-12T03:31:30;8.10;13.50
10245;DHT22;5167;52.164;10.530;2022-11-12T03:33:55;8.10;14.00
10245;DHT22;5167;52.164;10.530;2022-11-12T03:36:21;8.00;14.10
10245;DHT22;5167;52.164;10.530;2022-11-12T03:38:46;8.00;14.40
10245;DHT22;5167;52.164;10.530;2022-11-12T03:41:12;8.00;14.10
10245;DHT22;5167;52.164;10.530;2022-11-12T03:43:37;8.00;13.70
10245;DHT22;5167;52.164;10.530;2022-11-12T03:46:03;8.00;13.90
10245;DHT22;5167;52.164;10.530;2022-11-12T03:48:28;7.90;14.10
10245;DHT22;5167;52.164;10.530;2022-11-12T03:50:58;7.90;13.90
10245;DHT22;5167;52.164;10.530;2022-11-12T03:53:24;7.90;14.00
10245;DHT22;5167;52.164;10.530;2022-11-12T03:55:50;7.90;12.70
10245;DHT22;5167;52.164;10.530;2022-11-12T03:58:15;7.80;13.80
10245;DHT22;5167;52.164;10.530;2022-11-12T04:00:41;7.70;13.90
10245;DHT22;5167;52.164;10.530;2022-11-12T04:03:06;7.70;13.80
10245;DHT22;5167;52.164;10.530;2022-11-12T04:05:32;7.70;14.20
10245;DHT22;5167;52.164;10.530;2022-11-12T04:08:19;7.70;14.10
10245;DHT22;5167;52.164;10.530;2022-11-12T04:11:11;7.70;13.90
10245;DHT22;5167;52.164;10.530;2022-11-12T04:13:37;7.60;13.70
10245;DHT22;5167;52.164;10.530;2022-11-12T04:16:09;7.60;14.00
10245;DHT22;5167;52.164;10.530;2022-11-12T04:18:55;7.50;14.00
10245;DHT22;5167;52.164;10.530;2022-11-12T04:21:42;7.50;12.80
10245;DHT22;5167;52.164;10.530;2022-11-12T04:24:24;7.50;14.00
10245;DHT22;5167;52.164;10.530;2022-11-12T04:27:14;7.50;13.70
10245;DHT22;5167;52.164;10.530;2022-11-12T04:29:40;7.40;14.00
10245;DHT22;5167;52.164;10.530;2022-11-12T04:32:25;7.40;14.10
10245;DHT22;5167;52.164;10.530;2022-11-12T04:34:51;7.40;14.40
10245;DHT22;5167;52.164;10.530;2022-11-12T04:37:16;7.40;14.40
10245;DHT22;5167;52.164;10.530;2022-11-12T04:39:42;7.40;14.70
10245;DHT22;5167;52.164;10.530;2022-11-12T04:42:09;7.30;15.30
10245;DHT22;5167;52.164;10.530;2022-11-12T04:44:54;7.40;15.00
10245;DHT22;5167;52.164;10.530;2022-11-12T04:47:46;7.40;15.40
10245;DHT22;5167;52.164;10.530;2022-11-12T04:50:14;7.40;14.70
10245;DHT22;5167;52.164;10.530;2022-11-12T04:52:40;7.40;15.50
10245;DHT22;5167;52.164;10.530;2022-11-12T04:55:06;7.40;15.10
10245;DHT22;5167;52.164;10.530;2022-11-12T04:57:32;7.30;14.70
10245;DHT22;5167;52.164;10.530;2022-11-12T04:59:57;7.30;15.60
10245;DHT22;5167;52.164;10.530;2022-11-12T05:02:23;7.40;15.40
10245;DHT22;5167;52.164;10.530;2022-11-12T05:04:49;7.40;14.60
10245;DHT22;5167;52.164;10.530;2022-11-12T05:07:15;7.30;14.30
10245;DHT22;5167;52.164;10.530;2022-11-12T05:09:41;7.30;15.00
10245;DHT22;5167;52.164;10.530;2022-11-12T05:12:06;7.30;14.70
10245;DHT22;5167;52.164;10.530;2022-11-12T05:14:32;7.30;14.60
10245;DHT22;5167;52.164;10.530;2022-11-12T05:16:58;7.30;14.60
10245;DHT22;5167;52.164;10.530;2022-11-12T05:19:23;7.30;14.10
10245;DHT22;5167;52.164;10.530;2022-11-12T05:21:49;7.20;14.10
10245;DHT22;5167;52.164;10.530;2022-11-12T05:24:40;7.10;14.10
10245;DHT22;5167;52.164;10.530;2022-11-12T05:27:09;7.10;14.70
10245;DHT22;5167;52.164;10.530;2022-11-12T05:29:35;7.00;15.00
10245;DHT22;5167;52.164;10.530;2022-11-12T05:32:01;7.20;15.20
10245;DHT22;5167;52.164;10.530;2022-11-12T05:34:27;7.00;15.00
10245;DHT22;5167;52.164;10.530;2022-11-12T05:36:52;7.00;14.80
10245;DHT22;5167;52.164;10.530;2022-11-12T05:39:18;7.00;14.80
10245;DHT22;5167;52.164;10.530;2022-11-12T05:41:43;7.00;14.90
10245;DHT22;5167;52.164;10.530;2022-11-12T05:44:09;7.00;15.60
10245;DHT22;5167;52.164;10.530;2022-11-12T05:46:35;7.00;15.10
10245;DHT22;5167;52.164;10.530;2022-11-12T05:49:00;6.90;15.70
10245;DHT22;5167;52.164;10.530;2022-11-12T05:51:27;6.90;16.00
10245;DHT22;5167;52.164;10.530;2022-11-12T05:53:53;7.00;15.70
10245;DHT22;5167;52.164;10.530;2022-11-12T05:56:18;7.00;15.40
10245;DHT22;5167;52.164;10.530;2022-11-12T05:58:44;7.00;13.90
10245;DHT22;5167;52.164;10.530;2022-11-12T06:01:09;7.00;15.60
10245;DHT22;5167;52.164;10.530;2022-11-12T06:03:35;6.90;15.90
10245;DHT22;5167;52.164;10.530;2022-11-12T06:06:00;6.90;16.20
10245;DHT22;5167;52.164;10.530;2022-11-12T06:08:27;6.90;16.20
10245;DHT22;5167;52.164;10.530;2022-11-12T06:10:53;6.90;16.20
10245;DHT22;5167;52.164;10.530;2022-11-12T06:13:21;6.90;16.20
10245;DHT22;5167;52.164;10.530;2022-11-12T06:15:47;7.00;16.20
10245;DHT22;5167;52.164;10.530;2022-11-12T06:18:13;6.80;16.10
10245;DHT22;5167;52.164;10.530;2022-11-12T06:20:38;6.90;16.50
10245;DHT22;5167;52.164;10.530;2022-11-12T06:23:04;6.90;16.80
10245;DHT22;5167;52.164;10.530;2022-11-12T06:25:30;6.80;16.40
10245;DHT22;5167;52.164;10.530;2022-11-12T06:27:56;6.80;16.80
10245;DHT22;5167;52.164;10.530;2022-11-12T06:30:22;6.80;15.90
10245;DHT22;5167;52.164;10.530;2022-11-12T06:32:48;6.80;15.70
10245;DHT22;5167;52.164;10.530;2022-11-12T06:35:15;6.80;15.70
10245;DHT22;5167;52.164;10.530;2022-11-12T06:37:41;6.90;15.90
10245;DHT22;5167;52.164;10.530;2022-11-12T06:40:07;6.80;16.00
10245;DHT22;5167;52.164;10.530;2022-11-12T06:42:33;6.70;16.30
10245;DHT22;5167;52.164;10.530;2022-11-12T06:44:59;6.60;16.30
10245;DHT22;5167;52.164;10.530;2022-11-12T06:47:25;6.60;16.40
10245;DHT22;5167;52.164;10.530;2022-11-12T06:49:50;6.60;16.50
10245;DHT22;5167;52.164;10.530;2022-11-12T06:52:16;6.70;17.30
10245;DHT22;5167;52.164;10.530;2022-11-12T06:54:42;6.60;17.30
10245;DHT22;5167;52.164;10.530;2022-11-12T06:57:08;6.70;17.20
10245;DHT22;5167;52.164;10.530;2022-11-12T06:59:34;6.70;17.40
10245;DHT22;5167;52.164;10.530;2022-11-12T07:01:59;6.70;17.30
10245;DHT22;5167;52.164;10.530;2022-11-12T07:04:25;6.70;17.50
10245;DHT22;5167;52.164;10.530;2022-11-12T07:06:50;6.70;17.80
10245;DHT22;5167;52.164;10.530;2022-11-12T07:09:16;6.70;18.00
10245;DHT22;5167;52.164;10.530;2022-11-12T07:11:41;6.70;17.80
10245;DHT22;5167;52.164;10.530;2022-11-12T07:14:07;6.70;17.90
10245;DHT22;5167;52.164;10.530;2022-11-12T07:16:33;6.70;18.20
10245;DHT22;5167;52.164;10.530;2022-11-12T07:18:58;6.80;18.40
10245;DHT22;5167;52.164;10.530;2022-11-12T07:21:25;6.80;18.50
10245;DHT22;5167;52.164;10.530;2022-11-12T07:23:50;6.90;18.70
10245;DHT22;5167;52.164;10.530;2022-11-12T07:28:44;6.90;17.80
10245;DHT22;5167;52.164;10.530;2022-11-12T07:31:11;7.00;18.00
10245;DHT22;5167;52.164;10.530;2022-11-12T07:33:37;7.00;17.80
10245;DHT22;5167;52.164;10.530;2022-11-12T07:36:05;7.00;17.50
10245;DHT22;5167;52.164;10.530;2022-11-12T07:38:34;7.20;17.80
10245;DHT22;5167;52.164;10.530;2022-11-12T07:41:02;7.20;17.80
10245;DHT22;5167;52.164;10.530;2022-11-12T07:43:32;7.20;17.60
10245;DHT22;5167;52.164;10.530;2022-11-12T07:45:59;7.20;17.70
10245;DHT22;5167;52.164;10.530;2022-11-12T07:48:25;7.20;17.70
10245;DHT22;5167;52.164;10.530;2022-11-12T07:50:51;7.30;17.70
10245;DHT22;5167;52.164;10.530;2022-11-12T07:53:16;7.40;17.60
10245;DHT22;5167;52.164;10.530;2022-11-12T07:55:42;7.50;18.10
10245;DHT22;5167;52.164;10.530;2022-11-12T07:58:07;7.50;17.90
10245;DHT22;5167;52.164;10.530;2022-11-12T08:00:33;7.60;18.30
10245;DHT22;5167;52.164;10.530;2022-11-12T08:02:59;7.70;18.40
10245;DHT22;5167;52.164;10.530;2022-11-12T08:05:26;7.80;18.10
10245;DHT22;5167;52.164;10.530;2022-11-12T08:07:54;7.90;18.10
10245;DHT22;5167;52.164;10.530;2022-11-12T08:10:20;8.10;17.70
10245;DHT22;5167;52.164;10.530;2022-11-12T08:12:46;8.00;17.50
10245;DHT22;5167;52.164;10.530;2022-11-12T08:15:11;8.10;17.20
10245;DHT22;5167;52.164;10.530;2022-11-12T08:17:37;8.20;16.00
10245;DHT22;5167;52.164;10.530;2022-11-12T08:20:04;8.30;15.70
10245;DHT22;5167;52.164;10.530;2022-11-12T08:22:30;8.30;15.60
10245;DHT22;5167;52.164;10.530;2022-11-12T08:24:56;8.30;15.60
10245;DHT22;5167;52.164;10.530;2022-11-12T08:27:21;8.40;15.20
10245;DHT22;5167;52.164;10.530;2022-11-12T08:29:47;8.50;14.90
10245;DHT22;5167;52.164;10.530;2022-11-12T08:32:14;8.50;14.90
10245;DHT22;5167;52.164;10.530;2022-11-12T08:34:40;8.50;14.80
10245;DHT22;5167;52.164;10.530;2022-11-12T08:37:07;8.50;15.00
10245;DHT22;5167;52.164;10.530;2022-11-12T08:39:33;8.60;14.60
10245;DHT22;5167;52.164;10.530;2022-11-12T08:41:59;8.70;14.30
10245;DHT22;5167;52.164;10.530;2022-11-12T08:44:24;8.80;14.20
10245;DHT22;5167;52.164;10.530;2022-11-12T08:46:50;8.80;14.40
10245;DHT22;5167;52.164;10.530;2022-11-12T08:49:15;8.90;14.80
10245;DHT22;5167;52.164;10.530;2022-11-12T08:51:41;9.10;14.50
10245;DHT22;5167;52.164;10.530;2022-11-12T08:54:06;9.30;14.20
10245;DHT22;5167;52.164;10.530;2022-11-12T08:56:32;9.40;13.20
10245;DHT22;5167;52.164;10.530;2022-11-12T08:58:58;9.60;12.90
10245;DHT22;5167;52.164;10.530;2022-11-12T09:01:24;9.70;12.40
10245;DHT22;5167;52.164;10.530;2022-11-12T09:03:49;9.80;10.70
10245;DHT22;5167;52.164;10.530;2022-11-12T09:06:15;10.00;10.30
10245;DHT22;5167;52.164;10.530;2022-11-12T09:08:41;10.00;10.10
10245;DHT22;5167;52.164;10.530;2022-11-12T09:11:06;10.00;9.70
10245;DHT22;5167;52.164;10.530;2022-11-12T09:13:32;10.10;10.00
10245;DHT22;5167;52.164;10.530;2022-11-12T09:16:00;10.10;9.50
10245;DHT22;5167;52.164;10.530;2022-11-12T09:18:25;10.20;8.90
10245;DHT22;5167;52.164;10.530;2022-11-12T09:20:51;10.20;8.40
10245;DHT22;5167;52.164;10.530;2022-11-12T09:23:16;10.30;8.60
10245;DHT22;5167;52.164;10.530;2022-11-12T09:25:42;10.30;8.10
10245;DHT22;5167;52.164;10.530;2022-11-12T09:30:36;10.40;7.50
10245;DHT22;5167;52.164;10.530;2022-11-12T09:33:02;10.50;7.60
10245;DHT22;5167;52.164;10.530;2022-11-12T09:35:28;10.50;7.80
10245;DHT22;5167;52.164;10.530;2022-11-12T09:37:55;10.60;7.80
10245;DHT22;5167;52.164;10.530;2022-11-12T09:40:21;10.60;7.90
10245;DHT22;5167;52.164;10.530;2022-11-12T09:42:51;10.70;8.20
10245;DHT22;5167;52.164;10.530;2022-11-12T09:45:25;10.70;8.30
10245;DHT22;5167;52.164;10.530;2022-11-12T09:47:59;10.70;8.40
10245;DHT22;5167;52.164;10.530;2022-11-12T09:53:01;10.90;6.90
10245;DHT22;5167;52.164;10.530;2022-11-12T09:55:47;10.90;7.00
10245;DHT22;5167;52.164;10.530;2022-11-12T09:58:15;11.00;7.00
10245;DHT22;5167;52.164;10.530;2022-11-12T10:00:55;11.00;7.20
10245;DHT22;5167;52.164;10.530;2022-11-12T10:03:52;11.00;7.20
10245;DHT22;5167;52.164;10.530;2022-11-12T10:06:55;11.10;6.90
10245;DHT22;5167;52.164;10.530;2022-11-12T10:09:34;11.10;7.10
10245;DHT22;5167;52.164;10.530;2022-11-12T10:12:22;11.20;6.50
10245;DHT22;5167;52.164;10.530;2022-11-12T10:18:04;11.20;6.20
10245;DHT22;5167;52.164;10.530;2022-11-12T10:20:48;11.20;7.00
10245;DHT22;5167;52.164;10.530;2022-11-12T10:23:28;11.30;7.00
10245;DHT22;5167;52.164;10.530;2022-11-12T10:25:59;11.30;7.20
10245;DHT22;5167;52.164;10.530;2022-11-12T10:28:33;11.30;7.20
10245;DHT22;5167;52.164;10.530;2022-11-12T10:31:10;11.40;6.90
10245;DHT22;5167;52.164;10.530;2022-11-12T10:33:37;11.40;6.50
10245;DHT22;5167;52.164;10.530;2022-11-12T10:38:52;11.50;6.80
10245;DHT22;5167;52.164;10.530;2022-11-12T10:41:30;11.60;7.20
10245;DHT22;5167;52.164;10.530;2022-11-12T10:43:57;11.60;6.80
10245;DHT22;5167;52.164;10.530;2022-11-12T10:46:31;11.70;6.90
10245;DHT22;5167;52.164;10.530;2022-11-12T10:49:00;11.70;7.00
10245;DHT22;5167;52.164;10.530;2022-11-12T10:51:31;11.80;7.00
10245;DHT22;5167;52.164;10.530;2022-11-12T10:53:58;11.80;7.20
10245;DHT22;5167;52.164;10.530;2022-11-12T10:56:29;11.90;7.40
10245;DHT22;5167;52.164;10.530;2022-11-12T10:59:09;12.00;7.60
10245;DHT22;5167;52.164;10.530;2022-11-12T11:01:35;12.00;7.20
10245;DHT22;5167;52.164;10.530;2022-11-12T11:04:01;12.00;7.20
10245;DHT22;5167;52.164;10.530;2022-11-12T11:06:27;12.10;6.50
10245;DHT22;5167;52.164;10.530;2022-11-12T11:11:48;12.20;6.60
10245;DHT22;5167;52.164;10.530;2022-11-12T11:14:24;12.20;6.40
10245;DHT22;5167;52.164;10.530;2022-11-12T11:17:01;12.30;6.30
10245;DHT22;5167;52.164;10.530;2022-11-12T11:19:41;12.30;5.90
10245;DHT22;5167;52.164;10.530;2022-11-12T11:22:31;12.60;5.60
10245;DHT22;5167;52.164;10.530;2022-11-12T11:25:22;12.50;5.30
10245;DHT22;5167;52.164;10.530;2022-11-12T11:28:00;12.50;5.80
10245;DHT22;5167;52.164;10.530;2022-11-12T11:30:28;12.60;5.80
10245;DHT22;5167;52.164;10.530;2022-11-12T11:39:05;12.70;6.70
10245;DHT22;5167;52.164;10.530;2022-11-12T11:41:54;12.80;6.70
10245;DHT22;5167;52.164;10.530;2022-11-12T11:50:24;13.00;6.00
10245;DHT22;5167;52.164;10.530;2022-11-12T11:56:05;13.00;5.90
10245;DHT22;5167;52.164;10.530;2022-11-12T11:58:48;13.40;6.20
10245;DHT22;5167;52.164;10.530;2022-11-12T12:04:30;13.20;5.00
10245;DHT22;5167;52.164;10.530;2022-11-12T12:07:30;13.30;5.00
10245;DHT22;5167;52.164;10.530;2022-11-12T12:10:16;13.30;5.00
10245;DHT22;5167;52.164;10.530;2022-11-12T12:18:10;13.50;5.00
10245;DHT22;5167;52.164;10.530;2022-11-12T12:20:40;13.50;5.00
10245;DHT22;5167;52.164;10.530;2022-11-12T12:23:26;13.60;5.00
10245;DHT22;5167;52.164;10.530;2022-11-12T12:25:55;13.70;5.00
10245;DHT22;5167;52.164;10.530;2022-11-12T12:28:42;13.70;5.00
10245;DHT22;5167;52.164;10.530;2022-11-12T12:31:23;13.70;5.00
10245;DHT22;5167;52.164;10.530;2022-11-12T12:33:56;13.70;5.00
10245;DHT22;5167;52.164;10.530;2022-11-12T12:36:36;13.70;5.00
10245;DHT22;5167;52.164;10.530;2022-11-12T12:39:16;13.70;5.00
10245;DHT22;5167;52.164;10.530;2022-11-12T12:41:53;13.80;5.00
10245;DHT22;5167;52.164;10.530;2022-11-12T12:44:20;13.80;5.00
10245;DHT22;5167;52.164;10.530;2022-11-12T12:47:09;13.90;5.00
10245;DHT22;5167;52.164;10.530;2022-11-12T12:49:37;13.90;5.00
10245;DHT22;5167;52.164;10.530;2022-11-12T12:52:03;13.90;5.00
10245;DHT22;5167;52.164;10.530;2022-11-12T12:57:01;14.00;5.00
10245;DHT22;5167;52.164;10.530;2022-11-12T12:59:27;14.00;5.00
10245;DHT22;5167;52.164;10.530;2022-11-12T13:02:01;14.10;5.00
10245;DHT22;5167;52.164;10.530;2022-11-12T13:05:20;14.10;5.00
10245;DHT22;5167;52.164;10.530;2022-11-12T13:07:47;14.00;5.00
10245;DHT22;5167;52.164;10.530;2022-11-12T13:15:48;14.10;5.00
10245;DHT22;5167;52.164;10.530;2022-11-12T13:23:48;14.20;5.00
10245;DHT22;5167;52.164;10.530;2022-11-12T13:26:45;14.20;5.00
10245;DHT22;5167;52.164;10.530;2022-11-12T13:29:21;14.30;5.00
10245;DHT22;5167;52.164;10.530;2022-11-12T13:31:47;14.20;5.00
10245;DHT22;5167;52.164;10.530;2022-11-12T13:36:57;14.30;5.00
10245;DHT22;5167;52.164;10.530;2022-11-12T13:39:25;14.30;5.00
10245;DHT22;5167;52.164;10.530;2022-11-12T13:41:57;14.30;5.00
10245;DHT22;5167;52.164;10.530;2022-11-12T13:44:42;14.30;5.00
10245;DHT22;5167;52.164;10.530;2022-11-12T13:47:16;14.30;5.00
10245;DHT22;5167;52.164;10.530;2022-11-12T13:49:44;14.30;5.00
10245;DHT22;5167;52.164;10.530;2022-11-12T13:52:13;14.30;5.00
10245;DHT22;5167;52.164;10.530;2022-11-12T13:54:40;14.30;5.00
10245;DHT22;5167;52.164;10.530;2022-11-12T13:57:25;14.20;5.00
10245;DHT22;5167;52.164;10.530;2022-11-12T14:00:26;14.30;5.00
10245;DHT22;5167;52.164;10.530;2022-11-12T14:03:01;14.20;5.00
10245;DHT22;5167;52.164;10.530;2022-11-12T14:05:30;14.20;5.00
10245;DHT22;5167;52.164;10.530;2022-11-12T14:10:36;14.20;5.00
10245;DHT22;5167;52.164;10.530;2022-11-12T14:21:14;14.10;5.00
10245;DHT22;5167;52.164;10.530;2022-11-12T14:23:43;14.10;5.00
10245;DHT22;5167;52.164;10.530;2022-11-12T14:26:10;14.10;5.00
10245;DHT22;5167;52.164;10.530;2022-11-12T14:28:36;14.00;5.00
10245;DHT22;5167;52.164;10.530;2022-11-12T14:31:14;14.00;5.00
10245;DHT22;5167;52.164;10.530;2022-11-12T14:33:40;14.00;5.00
10245;DHT22;5167;52.164;10.530;2022-11-12T14:36:12;13.90;5.00
10245;DHT22;5167;52.164;10.530;2022-11-12T14:38:50;14.00;5.00
10245;DHT22;5167;52.164;10.530;2022-11-12T14:41:32;13.90;5.00
10245;DHT22;5167;52.164;10.530;2022-11-12T14:44:02;13.80;5.00
10245;DHT22;5167;52.164;10.530;2022-11-12T14:46:36;13.80;5.00
10245;DHT22;5167;52.164;10.530;2022-11-12T14:49:14;13.80;5.00
10245;DHT22;5167;52.164;10.530;2022-11-12T14:51:52;13.70;5.00
10245;DHT22;5167;52.164;10.530;2022-11-12T14:54:31;13.80;5.00
10245;DHT22;5167;52.164;10.530;2022-11-12T14:56:58;13.70;5.00
10245;DHT22;5167;52.164;10.530;2022-11-12T14:59:24;13.70;5.00
10245;DHT22;5167;52.164;10.530;2022-11-12T15:02:11;13.70;5.00
10245;DHT22;5167;52.164;10.530;2022-11-12T15:04:41;13.70;5.20
10245;DHT22;5167;52.164;10.530;2022-11-12T15:07:31;13.60;5.40
10245;DHT22;5167;52.164;10.530;2022-11-12T15:09:58;13.60;5.60
10245;DHT22;5167;52.164;10.530;2022-11-12T15:12:30;13.50;5.30
10245;DHT22;5167;52.164;10.530;2022-11-12T15:15:15;13.40;5.30
10245;DHT22;5167;52.164;10.530;2022-11-12T15:17:41;13.50;5.60
10245;DHT22;5167;52.164;10.530;2022-11-12T15:20:13;13.40;5.60
10245;DHT22;5167;52.164;10.530;2022-11-12T15:22:39;13.40;6.20
10245;DHT22;5167;52.164;10.530;2022-11-12T15:25:22;13.40;5.90
10245;DHT22;5167;52.164;10.530;2022-11-12T15:27:49;13.40;6.40
10245;DHT22;5167;52.164;10.530;2022-11-12T15:30:29;13.40;6.60
10245;DHT22;5167;52.164;10.530;2022-11-12T15:35:40;13.30;7.30
10245;DHT22;5167;52.164;10.530;2022-11-12T15:38:21;13.20;7.50
10245;DHT22;5167;52.164;10.530;2022-11-12T15:40:53;13.20;8.40
10245;DHT22;5167;52.164;10.530;2022-11-12T15:43:22;13.10;8.60
10245;DHT22;5167;52.164;10.530;2022-11-12T15:45:51;13.10;8.60
10245;DHT22;5167;52.164;10.530;2022-11-12T15:48:17;13.00;8.70
10245;DHT22;5167;52.164;10.530;2022-11-12T15:50:43;12.90;9.40
10245;DHT22;5167;52.164;10.530;2022-11-12T15:53:09;12.90;9.60
10245;DHT22;5167;52.164;10.530;2022-11-12T15:55:36;12.80;9.80
10245;DHT22;5167;52.164;10.530;2022-11-12T15:58:04;12.70;10.00
10245;DHT22;5167;52.164;10.530;2022-11-12T16:00:33;12.60;10.50
10245;DHT22;5167;52.164;10.530;2022-11-12T16:05:37;12.50;11.30
10245;DHT22;5167;52.164;10.530;2022-11-12T16:08:02;12.40;11.40
10245;DHT22;5167;52.164;10.530;2022-11-12T16:10:28;12.30;11.80
10245;DHT22;5167;52.164;10.530;2022-11-12T16:12:57;12.30;12.20
10245;DHT22;5167;52.164;10.530;2022-11-12T16:15:23;12.20;11.80
10245;DHT22;5167;52.164;10.530;2022-11-12T16:17:50;12.20;12.30
10245;DHT22;5167;52.164;10.530;2022-11-12T16:20:18;12.10;12.40
10245;DHT22;5167;52.164;10.530;2022-11-12T16:22:46;12.10;12.70
10245;DHT22;5167;52.164;10.530;2022-11-12T16:25:11;11.90;12.90
10245;DHT22;5167;52.164;10.530;2022-11-12T16:27:38;11.90;13.10
10245;DHT22;5167;52.164;10.530;2022-11-12T16:30:13;11.80;13.00
10245;DHT22;5167;52.164;10.530;2022-11-12T16:32:39;11.70;13.40
10245;DHT22;5167;52.164;10.530;2022-11-12T16:35:05;11.70;12.60
10245;DHT22;5167;52.164;10.530;2022-11-12T16:37:31;11.60;14.10
10245;DHT22;5167;52.164;10.530;2022-11-12T16:39:57;11.50;14.30
10245;DHT22;5167;52.164;10.530;2022-11-12T16:42:22;11.40;14.50
10245;DHT22;5167;52.164;10.530;2022-11-12T16:44:48;11.40;15.00
10245;DHT22;5167;52.164;10.530;2022-11-12T16:47:13;11.30;15.40
10245;DHT22;5167;52.164;10.530;2022-11-12T16:49:39;11.30;15.30
10245;DHT22;5167;52.164;10.530;2022-11-12T16:52:08;11.20;15.30
10245;DHT22;5167;52.164;10.530;2022-11-12T16:54:33;11.10;16.20
10245;DHT22;5167;52.164;10.530;2022-11-12T16:56:59;11.10;16.20
10245;DHT22;5167;52.164;10.530;2022-11-12T16:59:24;11.00;16.50
10245;DHT22;5167;52.164;10.530;2022-11-12T17:01:50;11.00;17.00
10245;DHT22;5167;52.164;10.530;2022-11-12T17:04:15;11.00;17.10
10245;DHT22;5167;52.164;10.530;2022-11-12T17:06:41;11.00;16.00
10245;DHT22;5167;52.164;10.530;2022-11-12T17:09:09;10.90;17.30
10245;DHT22;5167;52.164;10.530;2022-11-12T17:11:35;10.90;17.30
10245;DHT22;5167;52.164;10.530;2022-11-12T17:14:03;10.80;17.30